sensor_id;sensor_type;location;lat;lon;timestamp;temperature;humidity
19000;DHT22;9633;50.980;13.850;2023-11-21T00:00:58;9.50;99.90
19000;DHT22;9633;50.980;13.850;2023-11-21T00:02:33;9.50;99.90
19000;DHT22;9633;50.980;13.850;2023-11-21T00:04:05;9.50;99.90
19000;DHT22;9633;50.980;13.850;2023-11-21T00:05:39;9.50;99.90
19000;DHT22;9633;50.980;13.850;2023-11-21T00:07:15;9.50;99.90
19000;DHT22;9633;50.980;13.850;2023-11-21T00:08:48;9.40;99.90
19000;DHT22;9633;50.980;13.850;2023-11-21T00:10:20;9.50;99.90
19000;DHT22;9633;50.980;13.850;2023-11-21T00:11:53;9.50;99.90
19000;DHT22;9633;50.980;13.850;2023-11-21T00:13:26;9.50;99.90
19000;DHT22;9633;50.980;13.850;2023-11-21T00:14:59;9.50;99.90
19000;DHT22;9633;50.980;13.850;2023-11-21T00:16:32;9.40;99.90
19000;DHT22;9633;50.980;13.850;2023-11-21T00:18:06;9.40;99.90
19000;DHT22;9633;50.980;13.850;2023-11-21T00:19:38;9.40;99.90
19000;DHT22;9633;50.980;13.850;2023-11-21T00:21:11;9.40;99.90
19000;DHT22;9633;50.980;13.850;2023-11-21T00:22:46;9.50;99.90
19000;DHT22;9633;50.980;13.850;2023-11-21T00:24:19;9.40;99.90
19000;DHT22;9633;50.980;13.850;2023-11-21T00:25:51;9.40;99.90
19000;DHT22;9633;50.980;13.850;2023-11-21T00:27:25;9.40;99.90
19000;DHT22;9633;50.980;13.850;2023-11-21T00:28:57;9.40;99.90
19000;DHT22;9633;50.980;13.850;2023-11-21T00:30:31;9.40;99.90
19000;DHT22;9633;50.980;13.850;2023-11-21T00:32:04;9.40;99.90
19000;DHT22;9633;50.980;13.850;2023-11-21T00:33:38;9.40;99.90
19000;DHT22;9633;50.980;13.850;2023-11-21T00:35:10;9.40;99.90
19000;DHT22;9633;50.980;13.850;2023-11-21T00:36:43;9.40;99.90
19000;DHT22;9633;50.980;13.850;2023-11-21T00:38:17;9.40;99.90
19000;DHT22;9633;50.980;13.850;2023-11-21T00:39:51;9.40;99.90
19000;DHT22;9633;50.980;13.850;2023-11-21T00:41:23;9.30;99.90
19000;DHT22;9633;50.980;13.850;2023-11-21T00:42:59;9.40;99.90
19000;DHT22;9633;50.980;13.850;2023-11-21T00:44:33;9.30;99.90
19000;DHT22;9633;50.980;13.850;2023-11-21T00:46:07;9.40;99.90
19000;DHT22;9633;50.980;13.850;2023-11-21T00:47:40;9.30;99.90
19000;DHT22;9633;50.980;13.850;2023-11-21T00:49:13;9.40;99.90
19000;DHT22;9633;50.980;13.850;2023-11-21T00:50:47;9.30;99.90
19000;DHT22;9633;50.980;13.850;2023-11-21T00:52:19;9.30;99.90
19000;DHT22;9633;50.980;13.850;2023-11-21T00:53:53;9.30;99.90
19000;DHT22;9633;50.980;13.850;2023-11-21T00:55:27;9.30;99.90
19000;DHT22;9633;50.980;13.850;2023-11-21T00:57:00;9.30;99.90
19000;DHT22;9633;50.980;13.850;2023-11-21T00:58:33;9.30;99.90
19000;DHT22;9633;50.980;13.850;2023-11-21T01:00:06;9.30;99.90
19000;DHT22;9633;50.980;13.850;2023-11-21T01:01:43;9.30;99.90
19000;DHT22;9633;50.980;13.850;2023-11-21T01:03:16;9.20;99.90
19000;DHT22;9633;50.980;13.850;2023-11-21T01:04:49;9.30;99.90
19000;DHT22;9633;50.980;13.850;2023-11-21T01:06:22;9.30;99.90
19000;DHT22;9633;50.980;13.850;2023-11-21T01:07:55;9.30;99.90
19000;DHT22;9633;50.980;13.850;2023-11-21T01:09:29;9.30;99.90
19000;DHT22;9633;50.980;13.850;2023-11-21T01:11:02;9.30;99.90
19000;DHT22;9633;50.980;13.850;2023-11-21T01:12:35;9.40;99.90
19000;DHT22;9633;50.980;13.850;2023-11-21T01:14:08;9.30;99.90
19000;DHT22;9633;50.980;13.850;2023-11-21T01:15:42;9.30;99.90
19000;DHT22;9633;50.980;13.850;2023-11-21T01:17:15;9.30;99.90
19000;DHT22;9633;50.980;13.850;2023-11-21T01:18:49;9.40;99.90
19000;DHT22;9633;50.980;13.850;2023-11-21T01:20:22;9.40;99.90
19000;DHT22;9633;50.980;13.850;2023-11-21T01:21:54;9.30;99.90
19000;DHT22;9633;50.980;13.850;2023-11-21T01:23:29;9.40;99.90
19000;DHT22;9633;50.980;13.850;2023-11-21T01:25:03;9.40;99.90
19000;DHT22;9633;50.980;13.850;2023-11-21T01:26:39;9.30;99.90
19000;DHT22;9633;50.980;13.850;2023-11-21T01:28:11;9.30;99.90
19000;DHT22;9633;50.980;13.850;2023-11-21T01:29:45;9.30;99.90
19000;DHT22;9633;50.980;13.850;2023-11-21T01:31:17;9.30;99.90
19000;DHT22;9633;50.980;13.850;2023-11-21T01:32:52;9.30;99.90
19000;DHT22;9633;50.980;13.850;2023-11-21T01:34:26;9.20;99.90
19000;DHT22;9633;50.980;13.850;2023-11-21T01:35:58;9.20;99.90
19000;DHT22;9633;50.980;13.850;2023-11-21T01:37:31;9.20;99.90
19000;DHT22;9633;50.980;13.850;2023-11-21T01:39:04;9.20;99.90
19000;DHT22;9633;50.980;13.850;2023-11-21T01:40:42;9.20;99.90
19000;DHT22;9633;50.980;13.850;2023-11-21T01:42:16;9.20;99.90
19000;DHT22;9633;50.980;13.850;2023-11-21T01:43:50;9.20;99.90
19000;DHT22;9633;50.980;13.850;2023-11-21T01:45:23;9.20;99.90
19000;DHT22;9633;50.980;13.850;2023-11-21T01:46:56;9.20;99.90
19000;DHT22;9633;50.980;13.850;2023-11-21T01:48:30;9.10;99.90
19000;DHT22;9633;50.980;13.850;2023-11-21T01:50:03;9.20;99.90
19000;DHT22;9633;50.980;13.850;2023-11-21T01:51:37;9.10;99.90
19000;DHT22;9633;50.980;13.850;2023-11-21T01:53:11;9.10;99.90
19000;DHT22;9633;50.980;13.850;2023-11-21T01:54:45;9.10;99.90
19000;DHT22;9633;50.980;13.850;2023-11-21T01:56:19;9.10;99.90
19000;DHT22;9633;50.980;13.850;2023-11-21T01:57:53;9.00;99.90
19000;DHT22;9633;50.980;13.850;2023-11-21T01:59:26;9.00;99.90
19000;DHT22;9633;50.980;13.850;2023-11-21T02:01:03;9.00;99.90
19000;DHT22;9633;50.980;13.850;2023-11-21T02:02:37;9.00;99.90
19000;DHT22;9633;50.980;13.850;2023-11-21T02:04:09;9.10;99.90
19000;DHT22;9633;50.980;13.850;2023-11-21T02:05:42;9.10;99.90
19000;DHT22;9633;50.980;13.850;2023-11-21T02:07:14;9.10;99.90
19000;DHT22;9633;50.980;13.850;2023-11-21T02:08:48;9.10;99.90
19000;DHT22;9633;50.980;13.850;2023-11-21T02:10:21;9.10;99.90
19000;DHT22;9633;50.980;13.850;2023-11-21T02:11:57;9.10;99.90
19000;DHT22;9633;50.980;13.850;2023-11-21T02:13:30;9.10;99.90
19000;DHT22;9633;50.980;13.850;2023-11-21T02:15:06;9.10;99.90
19000;DHT22;9633;50.980;13.850;2023-11-21T02:16:42;9.00;99.90
19000;DHT22;9633;50.980;13.850;2023-11-21T02:18:19;9.00;99.90
19000;DHT22;9633;50.980;13.850;2023-11-21T02:19:53;9.00;99.90
19000;DHT22;9633;50.980;13.850;2023-11-21T02:21:26;9.00;99.90
19000;DHT22;9633;50.980;13.850;2023-11-21T02:23:02;9.00;99.90
19000;DHT22;9633;50.980;13.850;2023-11-21T02:24:34;9.00;99.90
19000;DHT22;9633;50.980;13.850;2023-11-21T02:26:08;8.90;99.90
19000;DHT22;9633;50.980;13.850;2023-11-21T02:27:41;9.00;99.90
19000;DHT22;9633;50.980;13.850;2023-11-21T02:29:15;9.00;99.90
19000;DHT22;9633;50.980;13.850;2023-11-21T02:30:50;9.00;99.90
19000;DHT22;9633;50.980;13.850;2023-11-21T02:32:27;9.00;99.90
19000;DHT22;9633;50.980;13.850;2023-11-21T02:33:59;9.00;99.90
19000;DHT22;9633;50.980;13.850;2023-11-21T02:35:33;8.90;99.90
19000;DHT22;9633;50.980;13.850;2023-11-21T02:37:07;9.00;99.90
19000;DHT22;9633;50.980;13.850;2023-11-21T02:38:40;8.90;99.90
19000;DHT22;9633;50.980;13.850;2023-11-21T02:40:13;8.90;99.90
19000;DHT22;9633;50.980;13.850;2023-11-21T02:41:49;8.90;99.90
19000;DHT22;9633;50.980;13.850;2023-11-21T02:43:24;9.00;99.90
19000;DHT22;9633;50.980;13.850;2023-11-21T02:44:56;9.00;99.90
19000;DHT22;9633;50.980;13.850;2023-11-21T02:46:29;8.90;99.90
19000;DHT22;9633;50.980;13.850;2023-11-21T02:48:04;8.90;99.90
19000;DHT22;9633;50.980;13.850;2023-11-21T02:49:38;9.00;99.90
19000;DHT22;9633;50.980;13.850;2023-11-21T02:51:10;9.00;99.90
19000;DHT22;9633;50.980;13.850;2023-11-21T02:52:44;9.00;99.90
19000;DHT22;9633;50.980;13.850;2023-11-21T02:54:17;8.90;99.90
19000;DHT22;9633;50.980;13.850;2023-11-21T02:55:51;9.00;99.90
19000;DHT22;9633;50.980;13.850;2023-11-21T02:57:24;8.90;99.90
19000;DHT22;9633;50.980;13.850;2023-11-21T02:58:59;8.90;99.90
19000;DHT22;9633;50.980;13.850;2023-11-21T03:00:31;8.90;99.90
19000;DHT22;9633;50.980;13.850;2023-11-21T03:02:04;8.90;99.90
19000;DHT22;9633;50.980;13.850;2023-11-21T03:03:40;8.90;99.90
19000;DHT22;9633;50.980;13.850;2023-11-21T03:05:13;8.90;99.90
19000;DHT22;9633;50.980;13.850;2023-11-21T03:06:46;8.90;99.90
19000;DHT22;9633;50.980;13.850;2023-11-21T03:08:19;8.90;99.90
19000;DHT22;9633;50.980;13.850;2023-11-21T03:09:53;8.90;99.90
19000;DHT22;9633;50.980;13.850;2023-11-21T03:11:26;8.80;99.90
19000;DHT22;9633;50.980;13.850;2023-11-21T03:12:59;8.80;99.90
19000;DHT22;9633;50.980;13.850;2023-11-21T03:14:32;8.80;99.90
19000;DHT22;9633;50.980;13.850;2023-11-21T03:16:05;8.80;99.90
19000;DHT22;9633;50.980;13.850;2023-11-21T03:17:38;8.70;99.90
19000;DHT22;9633;50.980;13.850;2023-11-21T03:19:11;8.70;99.90
19000;DHT22;9633;50.980;13.850;2023-11-21T03:20:44;8.60;99.90
19000;DHT22;9633;50.980;13.850;2023-11-21T03:22:18;8.60;99.90
19000;DHT22;9633;50.980;13.850;2023-11-21T03:23:51;8.50;99.90
19000;DHT22;9633;50.980;13.850;2023-11-21T03:25:26;8.40;99.90
19000;DHT22;9633;50.980;13.850;2023-11-21T03:26:59;8.40;99.90
19000;DHT22;9633;50.980;13.850;2023-11-21T03:28:32;8.30;99.90
19000;DHT22;9633;50.980;13.850;2023-11-21T03:30:05;8.30;99.90
19000;DHT22;9633;50.980;13.850;2023-11-21T03:31:39;8.20;99.90
19000;DHT22;9633;50.980;13.850;2023-11-21T03:33:11;8.20;99.90
19000;DHT22;9633;50.980;13.850;2023-11-21T03:34:54;8.20;99.90
19000;DHT22;9633;50.980;13.850;2023-11-21T03:36:27;8.10;99.90
19000;DHT22;9633;50.980;13.850;2023-11-21T03:38:00;8.10;99.90
19000;DHT22;9633;50.980;13.850;2023-11-21T03:39:34;8.00;99.90
19000;DHT22;9633;50.980;13.850;2023-11-21T03:41:08;8.00;99.90
19000;DHT22;9633;50.980;13.850;2023-11-21T03:42:42;7.90;99.90
19000;DHT22;9633;50.980;13.850;2023-11-21T03:44:15;7.70;99.90
19000;DHT22;9633;50.980;13.850;2023-11-21T03:45:47;7.70;99.90
19000;DHT22;9633;50.980;13.850;2023-11-21T03:47:21;7.60;99.90
19000;DHT22;9633;50.980;13.850;2023-11-21T03:48:54;7.50;99.90
19000;DHT22;9633;50.980;13.850;2023-11-21T03:50:28;7.40;99.90
19000;DHT22;9633;50.980;13.850;2023-11-21T03:52:00;7.30;99.90
19000;DHT22;9633;50.980;13.850;2023-11-21T03:53:37;7.10;99.90
19000;DHT22;9633;50.980;13.850;2023-11-21T03:55:13;7.00;99.90
19000;DHT22;9633;50.980;13.850;2023-11-21T03:56:49;6.90;99.90
19000;DHT22;9633;50.980;13.850;2023-11-21T03:58:21;6.80;99.90
19000;DHT22;9633;50.980;13.850;2023-11-21T03:59:55;6.70;99.90
19000;DHT22;9633;50.980;13.850;2023-11-21T04:01:27;6.70;99.90
19000;DHT22;9633;50.980;13.850;2023-11-21T04:03:00;6.70;99.90
19000;DHT22;9633;50.980;13.850;2023-11-21T04:04:32;6.80;99.90
19000;DHT22;9633;50.980;13.850;2023-11-21T04:06:06;6.70;99.90
19000;DHT22;9633;50.980;13.850;2023-11-21T04:07:38;6.70;99.90
19000;DHT22;9633;50.980;13.850;2023-11-21T04:09:12;6.70;99.90
19000;DHT22;9633;50.980;13.850;2023-11-21T04:10:45;6.60;99.90
19000;DHT22;9633;50.980;13.850;2023-11-21T04:12:19;6.60;99.90
19000;DHT22;9633;50.980;13.850;2023-11-21T04:13:52;6.60;99.90
19000;DHT22;9633;50.980;13.850;2023-11-21T04:15:24;6.60;99.90
19000;DHT22;9633;50.980;13.850;2023-11-21T04:16:58;6.60;99.90
19000;DHT22;9633;50.980;13.850;2023-11-21T04:18:30;6.50;99.90
19000;DHT22;9633;50.980;13.850;2023-11-21T04:20:04;6.50;99.90
19000;DHT22;9633;50.980;13.850;2023-11-21T04:21:41;6.50;99.90
19000;DHT22;9633;50.980;13.850;2023-11-21T04:23:15;6.50;99.90
19000;DHT22;9633;50.980;13.850;2023-11-21T04:24:48;6.60;99.90
19000;DHT22;9633;50.980;13.850;2023-11-21T04:26:21;6.60;99.90
19000;DHT22;9633;50.980;13.850;2023-11-21T04:27:55;6.60;99.90
19000;DHT22;9633;50.980;13.850;2023-11-21T04:29:28;6.50;99.90
19000;DHT22;9633;50.980;13.850;2023-11-21T04:31:00;6.50;99.90
19000;DHT22;9633;50.980;13.850;2023-11-21T04:32:34;6.50;99.90
19000;DHT22;9633;50.980;13.850;2023-11-21T04:34:06;6.40;99.90
19000;DHT22;9633;50.980;13.850;2023-11-21T04:35:40;6.40;99.90
19000;DHT22;9633;50.980;13.850;2023-11-21T04:37:13;6.30;99.90
19000;DHT22;9633;50.980;13.850;2023-11-21T04:38:46;6.30;99.90
19000;DHT22;9633;50.980;13.850;2023-11-21T04:40:18;6.20;99.90
19000;DHT22;9633;50.980;13.850;2023-11-21T04:41:53;6.20;99.90
19000;DHT22;9633;50.980;13.850;2023-11-21T04:43:26;6.20;99.90
19000;DHT22;9633;50.980;13.850;2023-11-21T04:44:59;6.10;99.90
19000;DHT22;9633;50.980;13.850;2023-11-21T04:46:33;6.10;99.90
19000;DHT22;9633;50.980;13.850;2023-11-21T04:48:06;6.10;99.90
19000;DHT22;9633;50.980;13.850;2023-11-21T04:49:42;6.10;99.90
19000;DHT22;9633;50.980;13.850;2023-11-21T04:51:15;6.20;99.90
19000;DHT22;9633;50.980;13.850;2023-11-21T04:52:47;6.20;99.90
19000;DHT22;9633;50.980;13.850;2023-11-21T04:54:20;6.20;99.90
19000;DHT22;9633;50.980;13.850;2023-11-21T04:55:56;6.30;99.90
19000;DHT22;9633;50.980;13.850;2023-11-21T04:57:30;6.30;99.90
19000;DHT22;9633;50.980;13.850;2023-11-21T04:59:04;6.30;99.90
19000;DHT22;9633;50.980;13.850;2023-11-21T05:00:37;6.30;99.90
19000;DHT22;9633;50.980;13.850;2023-11-21T05:02:10;6.40;99.90
19000;DHT22;9633;50.980;13.850;2023-11-21T05:04:04;6.40;99.90
19000;DHT22;9633;50.980;13.850;2023-11-21T05:05:38;6.50;99.90
19000;DHT22;9633;50.980;13.850;2023-11-21T05:07:10;6.60;99.90
19000;DHT22;9633;50.980;13.850;2023-11-21T05:08:43;6.60;99.90
19000;DHT22;9633;50.980;13.850;2023-11-21T05:10:16;6.60;99.90
19000;DHT22;9633;50.980;13.850;2023-11-21T05:11:49;6.70;99.90
19000;DHT22;9633;50.980;13.850;2023-11-21T05:13:22;6.70;99.90
19000;DHT22;9633;50.980;13.850;2023-11-21T05:15:00;6.80;99.90
19000;DHT22;9633;50.980;13.850;2023-11-21T05:16:35;6.80;99.90
19000;DHT22;9633;50.980;13.850;2023-11-21T05:18:08;6.90;99.90
19000;DHT22;9633;50.980;13.850;2023-11-21T05:19:40;7.00;99.90
19000;DHT22;9633;50.980;13.850;2023-11-21T05:21:13;7.00;99.90
19000;DHT22;9633;50.980;13.850;2023-11-21T05:22:47;7.00;99.90
19000;DHT22;9633;50.980;13.850;2023-11-21T05:24:21;7.10;99.90
19000;DHT22;9633;50.980;13.850;2023-11-21T05:25:53;7.10;99.90
19000;DHT22;9633;50.980;13.850;2023-11-21T05:27:28;7.20;99.90
19000;DHT22;9633;50.980;13.850;2023-11-21T05:29:00;7.10;99.90
19000;DHT22;9633;50.980;13.850;2023-11-21T05:30:35;7.20;99.90
19000;DHT22;9633;50.980;13.850;2023-11-21T05:32:07;7.20;99.90
19000;DHT22;9633;50.980;13.850;2023-11-21T05:33:41;7.20;99.90
19000;DHT22;9633;50.980;13.850;2023-11-21T05:35:13;7.30;99.90
19000;DHT22;9633;50.980;13.850;2023-11-21T05:36:48;7.30;99.90
19000;DHT22;9633;50.980;13.850;2023-11-21T05:38:21;7.30;99.90
19000;DHT22;9633;50.980;13.850;2023-11-21T05:39:54;7.30;99.90
19000;DHT22;9633;50.980;13.850;2023-11-21T05:41:28;7.30;99.90
19000;DHT22;9633;50.980;13.850;2023-11-21T05:43:01;7.40;99.90
19000;DHT22;9633;50.980;13.850;2023-11-21T05:44:34;7.40;99.90
19000;DHT22;9633;50.980;13.850;2023-11-21T05:46:08;7.40;99.90
19000;DHT22;9633;50.980;13.850;2023-11-21T05:47:42;7.50;99.90
19000;DHT22;9633;50.980;13.850;2023-11-21T05:49:15;7.50;99.90
19000;DHT22;9633;50.980;13.850;2023-11-21T05:50:48;7.50;99.90
19000;DHT22;9633;50.980;13.850;2023-11-21T05:52:21;7.50;99.90
19000;DHT22;9633;50.980;13.850;2023-11-21T05:53:53;7.50;99.90
19000;DHT22;9633;50.980;13.850;2023-11-21T05:55:26;7.50;99.90
19000;DHT22;9633;50.980;13.850;2023-11-21T05:56:59;7.50;99.90
19000;DHT22;9633;50.980;13.850;2023-11-21T05:58:33;7.50;99.90
19000;DHT22;9633;50.980;13.850;2023-11-21T06:00:06;7.50;99.90
19000;DHT22;9633;50.980;13.850;2023-11-21T06:01:47;7.50;99.90
19000;DHT22;9633;50.980;13.850;2023-11-21T06:03:20;7.50;99.90
19000;DHT22;9633;50.980;13.850;2023-11-21T06:04:53;7.50;99.90
19000;DHT22;9633;50.980;13.850;2023-11-21T06:06:25;7.50;99.90
19000;DHT22;9633;50.980;13.850;2023-11-21T06:07:59;7.50;99.90
19000;DHT22;9633;50.980;13.850;2023-11-21T06:09:32;7.50;99.90
19000;DHT22;9633;50.980;13.850;2023-11-21T06:11:06;7.40;99.90
19000;DHT22;9633;50.980;13.850;2023-11-21T06:12:39;7.50;99.90
19000;DHT22;9633;50.980;13.850;2023-11-21T06:14:14;7.50;99.90
19000;DHT22;9633;50.980;13.850;2023-11-21T06:15:50;7.40;99.90
19000;DHT22;9633;50.980;13.850;2023-11-21T06:17:24;7.40;99.90
19000;DHT22;9633;50.980;13.850;2023-11-21T06:18:57;7.40;99.90
19000;DHT22;9633;50.980;13.850;2023-11-21T06:20:30;7.40;99.90
19000;DHT22;9633;50.980;13.850;2023-11-21T06:22:02;7.40;99.90
19000;DHT22;9633;50.980;13.850;2023-11-21T06:23:36;7.30;99.90
19000;DHT22;9633;50.980;13.850;2023-11-21T06:25:08;7.30;99.90
19000;DHT22;9633;50.980;13.850;2023-11-21T06:26:42;7.30;99.90
19000;DHT22;9633;50.980;13.850;2023-11-21T06:28:16;7.30;99.90
19000;DHT22;9633;50.980;13.850;2023-11-21T06:29:49;7.30;99.90
19000;DHT22;9633;50.980;13.850;2023-11-21T06:31:22;7.30;99.90
19000;DHT22;9633;50.980;13.850;2023-11-21T06:32:57;7.40;99.90
19000;DHT22;9633;50.980;13.850;2023-11-21T06:34:29;7.40;99.90
19000;DHT22;9633;50.980;13.850;2023-11-21T06:36:02;7.40;99.90
19000;DHT22;9633;50.980;13.850;2023-11-21T06:37:35;7.40;99.90
19000;DHT22;9633;50.980;13.850;2023-11-21T06:39:08;7.40;99.90
19000;DHT22;9633;50.980;13.850;2023-11-21T06:40:42;7.50;99.90
19000;DHT22;9633;50.980;13.850;2023-11-21T06:42:14;7.50;99.90
19000;DHT22;9633;50.980;13.850;2023-11-21T06:43:47;7.50;99.90
19000;DHT22;9633;50.980;13.850;2023-11-21T06:45:20;7.60;99.90
19000;DHT22;9633;50.980;13.850;2023-11-21T06:46:53;7.60;99.90
19000;DHT22;9633;50.980;13.850;2023-11-21T06:48:27;7.70;99.90
19000;DHT22;9633;50.980;13.850;2023-11-21T06:50:02;7.70;99.90
19000;DHT22;9633;50.980;13.850;2023-11-21T06:51:34;7.80;99.90
19000;DHT22;9633;50.980;13.850;2023-11-21T06:53:08;7.80;99.90
19000;DHT22;9633;50.980;13.850;2023-11-21T06:54:41;7.90;99.90
19000;DHT22;9633;50.980;13.850;2023-11-21T06:56:18;8.00;99.90
19000;DHT22;9633;50.980;13.850;2023-11-21T06:57:50;8.00;99.90
19000;DHT22;9633;50.980;13.850;2023-11-21T06:59:24;8.00;99.90
19000;DHT22;9633;50.980;13.850;2023-11-21T07:00:56;8.10;99.90
19000;DHT22;9633;50.980;13.850;2023-11-21T07:02:31;8.10;99.90
19000;DHT22;9633;50.980;13.850;2023-11-21T07:04:05;8.20;99.90
19000;DHT22;9633;50.980;13.850;2023-11-21T07:05:38;8.20;99.90
19000;DHT22;9633;50.980;13.850;2023-11-21T07:07:11;8.20;99.90
19000;DHT22;9633;50.980;13.850;2023-11-21T07:08:44;8.20;99.90
19000;DHT22;9633;50.980;13.850;2023-11-21T07:10:17;8.30;99.90
19000;DHT22;9633;50.980;13.850;2023-11-21T07:11:50;8.20;99.90
19000;DHT22;9633;50.980;13.850;2023-11-21T07:13:22;8.30;99.90
19000;DHT22;9633;50.980;13.850;2023-11-21T07:14:55;8.30;99.90
19000;DHT22;9633;50.980;13.850;2023-11-21T07:16:27;8.40;99.90
19000;DHT22;9633;50.980;13.850;2023-11-21T07:18:02;8.40;99.90
19000;DHT22;9633;50.980;13.850;2023-11-21T07:19:37;8.40;99.90
19000;DHT22;9633;50.980;13.850;2023-11-21T07:21:10;8.40;99.90
19000;DHT22;9633;50.980;13.850;2023-11-21T07:22:43;8.50;99.90
19000;DHT22;9633;50.980;13.850;2023-11-21T07:24:16;8.40;99.90
19000;DHT22;9633;50.980;13.850;2023-11-21T07:25:49;8.50;99.90
19000;DHT22;9633;50.980;13.850;2023-11-21T07:27:21;8.50;99.90
19000;DHT22;9633;50.980;13.850;2023-11-21T07:28:56;8.50;99.90
19000;DHT22;9633;50.980;13.850;2023-11-21T07:30:28;8.60;99.90
19000;DHT22;9633;50.980;13.850;2023-11-21T07:32:01;8.60;99.90
19000;DHT22;9633;50.980;13.850;2023-11-21T07:33:34;8.50;99.90
19000;DHT22;9633;50.980;13.850;2023-11-21T07:35:09;8.50;99.90
19000;DHT22;9633;50.980;13.850;2023-11-21T07:36:43;8.40;99.90
19000;DHT22;9633;50.980;13.850;2023-11-21T07:38:15;8.40;99.90
19000;DHT22;9633;50.980;13.850;2023-11-21T07:39:48;8.50;99.90
19000;DHT22;9633;50.980;13.850;2023-11-21T07:41:21;8.40;99.90
19000;DHT22;9633;50.980;13.850;2023-11-21T07:43:02;8.50;99.90
19000;DHT22;9633;50.980;13.850;2023-11-21T07:44:35;8.40;99.90
19000;DHT22;9633;50.980;13.850;2023-11-21T07:46:08;8.40;99.90
19000;DHT22;9633;50.980;13.850;2023-11-21T07:47:40;8.50;99.90
19000;DHT22;9633;50.980;13.850;2023-11-21T07:49:14;8.50;99.90
19000;DHT22;9633;50.980;13.850;2023-11-21T07:50:49;8.40;99.90
19000;DHT22;9633;50.980;13.850;2023-11-21T07:52:22;8.40;99.90
19000;DHT22;9633;50.980;13.850;2023-11-21T07:53:55;8.50;99.90
19000;DHT22;9633;50.980;13.850;2023-11-21T07:55:28;8.50;99.90
19000;DHT22;9633;50.980;13.850;2023-11-21T07:57:04;8.50;99.90
19000;DHT22;9633;50.980;13.850;2023-11-21T07:58:37;8.50;99.90
19000;DHT22;9633;50.980;13.850;2023-11-21T08:00:10;8.50;99.90
19000;DHT22;9633;50.980;13.850;2023-11-21T08:01:44;8.60;99.90
19000;DHT22;9633;50.980;13.850;2023-11-21T08:03:18;8.60;99.90
19000;DHT22;9633;50.980;13.850;2023-11-21T08:04:51;8.60;99.90
19000;DHT22;9633;50.980;13.850;2023-11-21T08:06:25;8.70;99.90
19000;DHT22;9633;50.980;13.850;2023-11-21T08:07:58;8.70;99.90
19000;DHT22;9633;50.980;13.850;2023-11-21T08:09:31;8.80;99.90
19000;DHT22;9633;50.980;13.850;2023-11-21T08:11:05;8.80;99.90
19000;DHT22;9633;50.980;13.850;2023-11-21T08:12:37;8.90;99.90
19000;DHT22;9633;50.980;13.850;2023-11-21T08:14:11;8.90;99.90
19000;DHT22;9633;50.980;13.850;2023-11-21T08:15:44;9.00;99.90
19000;DHT22;9633;50.980;13.850;2023-11-21T08:17:18;9.00;99.90
19000;DHT22;9633;50.980;13.850;2023-11-21T08:18:52;9.00;99.90
19000;DHT22;9633;50.980;13.850;2023-11-21T08:20:26;9.00;99.90
19000;DHT22;9633;50.980;13.850;2023-11-21T08:22:01;9.10;99.90
19000;DHT22;9633;50.980;13.850;2023-11-21T08:23:34;9.20;99.90
19000;DHT22;9633;50.980;13.850;2023-11-21T08:25:07;9.20;99.90
19000;DHT22;9633;50.980;13.850;2023-11-21T08:26:40;9.10;99.90
19000;DHT22;9633;50.980;13.850;2023-11-21T08:28:13;9.20;99.90
19000;DHT22;9633;50.980;13.850;2023-11-21T08:29:46;9.30;99.90
19000;DHT22;9633;50.980;13.850;2023-11-21T08:31:24;9.20;99.90
19000;DHT22;9633;50.980;13.850;2023-11-21T08:32:58;9.10;99.90
19000;DHT22;9633;50.980;13.850;2023-11-21T08:34:30;9.00;99.90
19000;DHT22;9633;50.980;13.850;2023-11-21T08:36:07;9.10;99.90
19000;DHT22;9633;50.980;13.850;2023-11-21T08:37:40;8.90;99.90
19000;DHT22;9633;50.980;13.850;2023-11-21T08:39:14;8.80;99.90
19000;DHT22;9633;50.980;13.850;2023-11-21T08:40:48;8.80;99.90
19000;DHT22;9633;50.980;13.850;2023-11-21T08:42:21;8.80;99.90
19000;DHT22;9633;50.980;13.850;2023-11-21T08:43:54;8.70;99.90
19000;DHT22;9633;50.980;13.850;2023-11-21T08:45:30;8.60;99.90
19000;DHT22;9633;50.980;13.850;2023-11-21T08:47:03;8.70;99.90
19000;DHT22;9633;50.980;13.850;2023-11-21T08:48:41;8.60;99.90
19000;DHT22;9633;50.980;13.850;2023-11-21T08:50:13;8.50;99.90
19000;DHT22;9633;50.980;13.850;2023-11-21T08:51:47;8.50;99.90
19000;DHT22;9633;50.980;13.850;2023-11-21T08:53:20;8.50;99.90
19000;DHT22;9633;50.980;13.850;2023-11-21T08:54:54;8.40;99.90
19000;DHT22;9633;50.980;13.850;2023-11-21T08:56:28;8.40;99.90
19000;DHT22;9633;50.980;13.850;2023-11-21T08:58:01;8.50;99.90
19000;DHT22;9633;50.980;13.850;2023-11-21T08:59:37;8.60;99.90
19000;DHT22;9633;50.980;13.850;2023-11-21T09:01:09;8.60;99.90
19000;DHT22;9633;50.980;13.850;2023-11-21T09:02:44;8.60;99.90
19000;DHT22;9633;50.980;13.850;2023-11-21T09:04:17;8.70;99.90
19000;DHT22;9633;50.980;13.850;2023-11-21T09:05:50;8.80;99.90
19000;DHT22;9633;50.980;13.850;2023-11-21T09:07:23;8.80;99.90
19000;DHT22;9633;50.980;13.850;2023-11-21T09:08:57;8.80;99.90
19000;DHT22;9633;50.980;13.850;2023-11-21T09:10:31;8.80;99.90
19000;DHT22;9633;50.980;13.850;2023-11-21T09:12:04;8.70;99.90
19000;DHT22;9633;50.980;13.850;2023-11-21T09:13:38;8.70;99.90
19000;DHT22;9633;50.980;13.850;2023-11-21T09:15:10;8.60;99.90
19000;DHT22;9633;50.980;13.850;2023-11-21T09:16:44;8.70;99.90
19000;DHT22;9633;50.980;13.850;2023-11-21T09:18:16;8.70;99.90
19000;DHT22;9633;50.980;13.850;2023-11-21T09:19:50;8.70;99.90
19000;DHT22;9633;50.980;13.850;2023-11-21T09:21:23;8.60;99.90
19000;DHT22;9633;50.980;13.850;2023-11-21T09:22:57;8.60;99.90
19000;DHT22;9633;50.980;13.850;2023-11-21T09:24:31;8.60;99.90
19000;DHT22;9633;50.980;13.850;2023-11-21T09:26:04;8.40;99.90
19000;DHT22;9633;50.980;13.850;2023-11-21T09:27:37;8.40;99.90
19000;DHT22;9633;50.980;13.850;2023-11-21T09:29:10;8.30;99.90
19000;DHT22;9633;50.980;13.850;2023-11-21T09:30:43;8.30;99.90
19000;DHT22;9633;50.980;13.850;2023-11-21T09:32:16;8.30;99.90
19000;DHT22;9633;50.980;13.850;2023-11-21T09:33:50;8.30;99.90
19000;DHT22;9633;50.980;13.850;2023-11-21T09:35:23;8.30;99.90
19000;DHT22;9633;50.980;13.850;2023-11-21T09:36:56;8.30;99.90
19000;DHT22;9633;50.980;13.850;2023-11-21T09:38:29;8.20;99.90
19000;DHT22;9633;50.980;13.850;2023-11-21T09:40:03;8.10;99.90
19000;DHT22;9633;50.980;13.850;2023-11-21T09:41:43;8.10;99.90
19000;DHT22;9633;50.980;13.850;2023-11-21T09:43:17;8.10;99.90
19000;DHT22;9633;50.980;13.850;2023-11-21T09:44:56;8.10;99.90
19000;DHT22;9633;50.980;13.850;2023-11-21T09:46:31;8.10;99.90
19000;DHT22;9633;50.980;13.850;2023-11-21T09:48:05;8.10;99.90
19000;DHT22;9633;50.980;13.850;2023-11-21T09:49:38;8.10;99.90
19000;DHT22;9633;50.980;13.850;2023-11-21T09:51:12;8.10;99.90
19000;DHT22;9633;50.980;13.850;2023-11-21T09:52:49;8.10;99.90
19000;DHT22;9633;50.980;13.850;2023-11-21T09:54:27;8.00;99.90
19000;DHT22;9633;50.980;13.850;2023-11-21T09:56:02;8.00;99.90
19000;DHT22;9633;50.980;13.850;2023-11-21T09:57:35;8.10;99.90
19000;DHT22;9633;50.980;13.850;2023-11-21T09:59:11;8.10;99.90
19000;DHT22;9633;50.980;13.850;2023-11-21T10:00:46;8.10;99.90